Terminal Aerodrome Forecast
Issued by NWS Cleveland, OH

Home | Current Version | Previous Version | Text Only | Print | Product List | Glossary Off
Versions: 1 2 3 4 5 6 7 8 9 10 11 12 13 14 15 16 17 18 19 20 21 22 23 24 25 26

000
FTUS41 KCLE 090500
TAFCLE
TAF
KCLE 090532Z 0906/1012 21006KT P6SM BKN070
      TEMPO 0906/0908 3SM SHRA OVC030
     FM090900 24005KT 5SM BR SCT035
     FM091400 28010KT P6SM VCSH BKN035
     FM091900 30010KT P6SM BKN050
     FM100000 33006KT P6SM SCT050=

USA.gov is the U.S. government's official web portal to all federal, state and local government web resources and services.